MMMZ/MZT METAR and TAF weather

Enter ICAO airport designator
Station Type Date Time Source
MMMZ METAR 2020/09/23 02:47 UTC NOAA

MMMZ 230247Z 34003KT 10SM FEW030 SCT240 29/26 A2989 RMK SLP108 52006 977 8/402 ISOL CB


Station Type Date Time Source
MMMZ Decoded METAR 2020/09/23 02:47 UTC NOAA

Mazatlan / G. Buelna, Mexico (MMMZ) 23-10N 106-16W
Sep 22, 2020 - 10:47 PM EDT / 2020.09.23 0247 UTC
Wind: from the NNW (340 degrees) at 3 MPH (3 KT):0
Visibility: 10 mile(s):0
Sky conditions: partly cloudy
Weather: Cumulonimbus clouds observed
Temperature: 84 F (29 C)
Dew Point: 78 F (26 C)
Relative Humidity: 83%
Pressure (altimeter): 29.89 in. Hg (1012 hPa)
Pressure tendency: 0.02 inches (0.6 hPa) higher than three hours ago
ob: MMMZ 230247Z 34003KT 10SM FEW030 SCT240 29/26 A2989 RMK SLP108 52006 977 8/402 ISOL CB
cycle: 3

Station Type Date Time Source
MMMZ TAF 2020/09/23 06:51 UTC NOAA

TAF MMMZ 230343Z 2306/2412 34005KT P6SM SCT030 SCT240 TX33/2320Z TN25/2312Z
FM231800 33010KT P6SM SCT030
FM240300 33005KT 6SM HZ SKC

Example: see airport list